Time;durP1;ratioP1;P1;durP2;ratioP2;P2;SDS_P1;SDS_P2;PMS_P1;PMS_P2;Temp;Humidity;BMP_temperature;BMP_pressure;BME280_temperature;BME280_humidity;BME280_pressure;Samples;Min_cycle;Max_cycle;Signal;HPM_P1;HPM_P2
2023/09/12 00:01:08;;;;;;;38.20;28.95;;;19.40;99.90;;;;;;5120873;28;20047;-60
2023/09/12 00:03:35;;;;;;;36.70;29.17;;;19.50;99.90;;;;;;5119493;28;20079;-61
2023/09/12 00:06:02;;;;;;;37.65;30.40;;;19.50;99.90;;;;;;5121136;28;20085;-60
2023/09/12 00:08:28;;;;;;;39.17;30.30;;;19.60;99.90;;;;;;5119587;28;20039;-60
2023/09/12 00:11:06;;;;;;;38.88;30.48;;;19.60;99.90;;;;;;5120629;28;20100;-60
2023/09/12 00:13:32;;;;;;;40.67;30.42;;;19.50;99.90;;;;;;5120357;28;20051;-59
2023/09/12 00:15:58;;;;;;;38.70;30.45;;;19.60;99.90;;;;;;5119492;28;20059;-60
2023/09/12 00:18:24;;;;;;;40.53;31.00;;;19.50;99.90;;;;;;5120101;28;20372;-59
2023/09/12 00:20:51;;;;;;;37.35;31.17;;;19.50;99.90;;;;;;5119254;28;20049;-58
2023/09/12 00:23:18;;;;;;;40.00;30.88;;;19.50;99.90;;;;;;5120908;28;20079;-60
2023/09/12 00:25:43;;;;;;;38.97;30.42;;;19.60;99.90;;;;;;5119494;28;20035;-60
2023/09/12 00:28:09;;;;;;;41.75;30.73;;;19.50;99.90;;;;;;5120350;28;20063;-60
2023/09/12 00:30:35;;;;;;;41.00;30.48;;;19.60;99.90;;;;;;5120081;28;20036;-60
2023/09/12 00:33:00;;;;;;;40.17;30.48;;;19.60;99.90;;;;;;5119514;28;20487;-60
2023/09/12 00:35:26;;;;;;;37.22;29.88;;;19.50;99.90;;;;;;5120163;28;20071;-59
2023/09/12 00:37:51;;;;;;;41.88;31.90;;;19.50;99.90;;;;;;5119030;28;20180;-59
2023/09/12 00:40:17;;;;;;;39.75;31.27;;;19.50;99.90;;;;;;5120418;28;20043;-59
2023/09/12 00:42:43;;;;;;;40.88;32.10;;;19.50;99.90;;;;;;5119254;28;20118;-60
2023/09/12 00:45:09;;;;;;;43.15;31.42;;;19.40;99.90;;;;;;5120218;28;20469;-59
2023/09/12 00:47:36;;;;;;;39.25;31.25;;;19.30;99.90;;;;;;5119772;28;20415;-59
2023/09/12 00:50:04;;;;;;;42.72;32.13;;;19.40;99.90;;;;;;5118702;28;20059;-59
2023/09/12 00:52:32;;;;;;;40.42;31.77;;;19.20;99.90;;;;;;5120319;28;20071;-59
2023/09/12 00:54:58;;;;;;;41.10;32.58;;;19.10;99.90;;;;;;5109633;28;20047;-58
2023/09/12 00:57:24;;;;;;;39.70;30.77;;;19.00;99.90;;;;;;5099777;28;20039;-59
2023/09/12 00:59:51;;;;;;;38.97;30.25;;;18.90;99.90;;;;;;5098260;28;20112;-59
2023/09/12 01:02:19;;;;;;;38.92;31.17;;;19.00;99.90;;;;;;5099640;28;20055;-59
2023/09/12 01:04:45;;;;;;;39.35;30.45;;;19.10;99.90;;;;;;5099027;28;20043;-60
2023/09/12 01:07:11;;;;;;;38.90;29.88;;;19.10;99.90;;;;;;5098808;28;20036;-59
2023/09/12 01:09:36;;;;;;;41.50;30.65;;;19.20;99.90;;;;;;5099432;28;20044;-57
2023/09/12 01:12:02;;;;;;;41.30;30.08;;;19.20;99.90;;;;;;5098354;28;20051;-59
2023/09/12 01:14:31;;;;;;;41.45;29.77;;;19.10;99.90;;;;;;5099603;28;20051;-59
2023/09/12 01:16:57;;;;;;;40.60;30.48;;;19.10;99.90;;;;;;5098208;28;20059;-59
2023/09/12 01:19:24;;;;;;;39.25;29.70;;;19.20;99.90;;;;;;5098964;28;20040;-58
2023/09/12 01:21:55;;;;;;;40.47;30.65;;;19.00;99.90;;;;;;5098955;28;20435;-58
2023/09/12 01:24:56;;;;;;;39.65;29.35;;;19.00;99.90;;;;;;5098502;28;20048;-59
2023/09/12 01:27:30;;;;;;;36.60;29.50;;;19.10;99.90;;;;;;5099686;28;20087;-58
2023/09/12 01:30:03;;;;;;;41.78;31.00;;;19.00;99.90;;;;;;5098512;28;20036;-58
2023/09/12 01:32:30;;;;;;;42.50;30.52;;;18.90;99.90;;;;;;5099345;28;20036;-58
2023/09/12 01:34:56;;;;;;;40.90;30.60;;;18.90;99.90;;;;;;5099057;28;20039;-58
2023/09/12 01:37:22;;;;;;;40.15;30.75;;;18.90;99.90;;;;;;5098064;28;20189;-58
2023/09/12 01:39:48;;;;;;;44.38;32.00;;;18.80;99.90;;;;;;5099240;28;20170;-58
2023/09/12 01:42:17;;;;;;;44.72;30.73;;;18.80;99.90;;;;;;5097873;28;20047;-59
2023/09/12 01:44:44;;;;;;;41.50;30.90;;;18.80;99.90;;;;;;5099493;28;20040;-58
2023/09/12 01:47:11;;;;;;;43.47;31.80;;;18.80;99.90;;;;;;5098439;28;20113;-58
2023/09/12 01:49:40;;;;;;;43.05;30.00;;;18.80;99.90;;;;;;5098729;28;20575;-59
2023/09/12 01:52:07;;;;;;;39.05;30.42;;;18.80;99.90;;;;;;5098772;28;20415;-58
2023/09/12 01:54:34;;;;;;;45.47;30.63;;;18.90;99.90;;;;;;5102892;28;20126;-59
2023/09/12 01:57:01;;;;;;;40.63;30.48;;;18.90;99.90;;;;;;5117776;28;20047;-58
2023/09/12 01:59:28;;;;;;;40.63;29.88;;;18.80;99.90;;;;;;5118339;28;20039;-58
2023/09/12 02:01:53;;;;;;;39.97;29.55;;;18.90;99.90;;;;;;5119649;28;20051;-58
2023/09/12 02:04:19;;;;;;;40.95;31.17;;;18.90;99.90;;;;;;5118505;28;20044;-58
2023/09/12 02:06:45;;;;;;;40.83;29.83;;;18.80;99.90;;;;;;5118851;28;20040;-58
2023/09/12 02:09:10;;;;;;;39.60;29.77;;;18.80;99.90;;;;;;5118807;28;20036;-58
2023/09/12 02:11:36;;;;;;;44.83;30.67;;;18.80;99.90;;;;;;5119821;28;20039;-58
2023/09/12 02:14:02;;;;;;;41.40;30.25;;;18.80;99.90;;;;;;5122753;28;20050;-58
2023/09/12 02:16:29;;;;;;;38.97;29.50;;;18.80;99.90;;;;;;5120250;28;20120;-58
2023/09/12 02:18:54;;;;;;;38.28;28.45;;;18.70;99.90;;;;;;5123292;28;20087;-58
2023/09/12 02:21:20;;;;;;;38.88;30.30;;;18.70;99.90;;;;;;5121619;28;20055;-57
2023/09/12 02:23:46;;;;;;;37.47;29.05;;;18.70;99.90;;;;;;5122693;28;20040;-58
2023/09/12 02:26:12;;;;;;;39.15;29.40;;;18.60;99.90;;;;;;5122284;28;20044;-58
2023/09/12 02:28:37;;;;;;;37.88;29.58;;;18.70;99.90;;;;;;5121658;28;20069;-58
2023/09/12 02:31:03;;;;;;;38.67;29.35;;;18.60;99.90;;;;;;5122653;28;20614;-58
2023/09/12 02:33:29;;;;;;;41.78;27.73;;;18.70;99.90;;;;;;5121603;28;20027;-58
2023/09/12 02:35:54;;;;;;;38.97;27.73;;;18.60;99.90;;;;;;5122408;28;20134;-57
2023/09/12 02:38:20;;;;;;;45.58;26.25;;;18.60;99.90;;;;;;5121333;28;20078;-58
2023/09/12 02:40:45;;;;;;;41.42;26.75;;;18.50;99.90;;;;;;5122753;28;20478;-58
2023/09/12 02:43:11;;;;;;;51.92;25.52;;;18.50;99.90;;;;;;5121953;28;20044;-58
2023/09/12 02:45:37;;;;;;;39.50;26.05;;;18.50;99.90;;;;;;5121642;28;20050;-59
2023/09/12 02:48:03;;;;;;;42.65;27.63;;;18.40;99.90;;;;;;5122034;28;20043;-58
2023/09/12 02:50:28;;;;;;;36.25;27.33;;;18.40;99.90;;;;;;5120731;28;20083;-59
2023/09/12 02:52:54;;;;;;;36.90;27.48;;;18.40;99.90;;;;;;5122234;28;20104;-58
2023/09/12 02:55:20;;;;;;;35.92;27.50;;;18.40;99.90;;;;;;5109056;28;20086;-60
2023/09/12 02:57:46;;;;;;;35.97;28.05;;;18.30;99.90;;;;;;5101855;28;20043;-59
2023/09/12 03:00:13;;;;;;;38.33;27.90;;;18.30;99.90;;;;;;5101194;28;20088;-58
2023/09/12 03:02:39;;;;;;;38.38;29.40;;;18.30;99.90;;;;;;5100991;28;20044;-59
2023/09/12 03:05:05;;;;;;;38.28;28.70;;;18.30;99.90;;;;;;5101300;28;20043;-58
2023/09/12 03:07:30;;;;;;;39.58;30.13;;;18.20;99.90;;;;;;5100394;28;20099;-59
2023/09/12 03:09:56;;;;;;;41.20;29.92;;;18.20;99.90;;;;;;5101581;28;20067;-58
2023/09/12 03:12:22;;;;;;;42.08;30.48;;;18.20;99.90;;;;;;5100070;28;20040;-58
2023/09/12 03:14:47;;;;;;;38.13;27.85;;;18.20;99.90;;;;;;5101719;28;20101;-58
2023/09/12 03:17:13;;;;;;;45.00;29.75;;;18.20;99.90;;;;;;5098871;28;20052;-58
2023/09/12 03:19:39;;;;;;;47.47;30.02;;;18.10;99.90;;;;;;5099209;28;20395;-58
2023/09/12 03:22:04;;;;;;;47.42;28.77;;;18.10;99.90;;;;;;5100695;28;20038;-58
2023/09/12 03:24:31;;;;;;;49.08;27.85;;;18.10;99.90;;;;;;5100071;28;20097;-58
2023/09/12 03:26:56;;;;;;;43.95;28.15;;;18.00;99.90;;;;;;5101150;28;20119;-59
2023/09/12 03:29:22;;;;;;;62.35;27.90;;;18.00;99.90;;;;;;5100046;28;20048;-58
2023/09/12 03:31:48;;;;;;;52.95;27.80;;;18.10;99.90;;;;;;5099973;28;20146;-58
2023/09/12 03:34:14;;;;;;;46.78;28.42;;;18.10;99.90;;;;;;5100065;28;20074;-58
2023/09/12 03:36:40;;;;;;;38.03;27.25;;;18.10;99.90;;;;;;5100791;28;20044;-58
2023/09/12 03:39:08;;;;;;;52.08;29.13;;;18.10;99.90;;;;;;5100290;28;20036;-58
2023/09/12 03:41:37;;;;;;;42.30;28.00;;;17.90;99.90;;;;;;5099942;28;20082;-59
2023/09/12 03:44:02;;;;;;;36.88;27.35;;;17.90;99.90;;;;;;5100714;28;20040;-58
2023/09/12 03:46:28;;;;;;;37.42;28.70;;;18.10;99.90;;;;;;5099435;28;20415;-58
2023/09/12 03:48:54;;;;;;;41.67;29.65;;;18.10;99.90;;;;;;5100769;28;20052;-58
2023/09/12 03:51:19;;;;;;;39.25;30.33;;;18.00;99.90;;;;;;5099150;28;20058;-59
2023/09/12 03:53:47;;;;;;;40.53;29.63;;;18.00;99.90;;;;;;5100543;28;20067;-59
2023/09/12 03:56:14;;;;;;;41.47;30.27;;;17.90;99.90;;;;;;5119609;28;20040;-58
2023/09/12 03:58:40;;;;;;;43.58;30.75;;;18.00;99.90;;;;;;5119903;28;20954;-58
2023/09/12 04:01:06;;;;;;;43.97;31.67;;;18.00;99.90;;;;;;5120955;28;20071;-59
2023/09/12 04:03:32;;;;;;;41.63;30.27;;;18.00;99.90;;;;;;5105415;28;20096;-58
2023/09/12 04:05:57;;;;;;;48.75;31.02;;;18.00;99.90;;;;;;5100687;28;20082;-59
2023/09/12 04:08:23;;;;;;;42.83;31.88;;;18.00;99.90;;;;;;5099233;28;20079;-58
2023/09/12 04:10:48;;;;;;;63.58;30.80;;;18.10;99.90;;;;;;5100457;28;20059;-58
2023/09/12 04:13:14;;;;;;;42.47;29.27;;;18.00;99.90;;;;;;5099854;28;20086;-60
2023/09/12 04:15:40;;;;;;;43.25;31.23;;;18.10;99.90;;;;;;5099478;28;20044;-59
2023/09/12 04:18:06;;;;;;;55.25;31.92;;;18.00;99.90;;;;;;5099873;28;20475;-61
2023/09/12 04:20:32;;;;;;;44.50;29.90;;;18.00;99.90;;;;;;5098562;28;20040;-58
2023/09/12 04:23:00;;;;;;;61.83;29.60;;;18.10;99.90;;;;;;5100206;28;20078;-58
2023/09/12 04:25:26;;;;;;;65.28;29.80;;;18.00;99.90;;;;;;5098611;28;20040;-59
2023/09/12 04:27:52;;;;;;;54.25;30.17;;;18.00;99.90;;;;;;5100158;28;20089;-58
2023/09/12 04:30:18;;;;;;;58.72;31.05;;;17.90;99.90;;;;;;5097880;28;20112;-59
2023/09/12 04:32:43;;;;;;;80.95;31.10;;;18.10;99.90;;;;;;5099036;28;20238;-59
2023/09/12 04:35:09;;;;;;;75.35;30.77;;;18.00;99.90;;;;;;5098921;28;20073;-58
2023/09/12 04:37:35;;;;;;;43.40;30.35;;;18.10;99.90;;;;;;5098782;28;20039;-58
2023/09/12 04:40:01;;;;;;;65.13;29.50;;;18.10;99.90;;;;;;5099985;28;20040;-58
2023/09/12 04:42:27;;;;;;;72.40;30.30;;;18.10;99.90;;;;;;5098594;28;20044;-58
2023/09/12 04:44:52;;;;;;;53.25;29.40;;;17.90;99.90;;;;;;5099971;28;20081;-58
2023/09/12 04:47:18;;;;;;;48.50;29.10;;;18.00;99.90;;;;;;5099255;28;20048;-58
2023/09/12 04:49:44;;;;;;;76.28;31.10;;;18.00;99.90;;;;;;5098521;28;20137;-58
2023/09/12 04:52:10;;;;;;;50.85;31.10;;;17.90;99.90;;;;;;5099656;28;20484;-58
2023/09/12 04:54:36;;;;;;;64.70;30.85;;;18.10;99.90;;;;;;5104090;28;20039;-58
2023/09/12 04:57:02;;;;;;;47.97;30.52;;;18.00;99.90;;;;;;5119935;28;20052;-58
2023/09/12 04:59:27;;;;;;;48.88;31.38;;;18.20;99.90;;;;;;5118714;28;20561;-58
2023/09/12 05:01:53;;;;;;;61.75;30.30;;;18.10;99.90;;;;;;5120326;28;20047;-58
2023/09/12 05:04:19;;;;;;;63.30;28.10;;;18.10;99.90;;;;;;5119115;28;20043;-58
2023/09/12 05:06:46;;;;;;;52.10;29.25;;;18.00;99.90;;;;;;5119735;28;20067;-58
2023/09/12 05:09:12;;;;;;;41.45;28.15;;;18.10;99.90;;;;;;5119755;28;20120;-58
2023/09/12 05:11:37;;;;;;;47.15;29.08;;;18.10;99.90;;;;;;5118610;28;20176;-58
2023/09/12 05:14:03;;;;;;;48.95;29.38;;;18.00;99.90;;;;;;5118459;28;20077;-58
2023/09/12 05:16:30;;;;;;;47.20;28.20;;;18.10;99.90;;;;;;5118433;28;20103;-59
2023/09/12 05:18:55;;;;;;;41.45;28.77;;;18.10;99.90;;;;;;5119686;28;20043;-58
2023/09/12 05:21:21;;;;;;;53.88;28.50;;;18.20;99.90;;;;;;5118837;28;20043;-58
2023/09/12 05:23:47;;;;;;;42.35;28.50;;;18.00;99.90;;;;;;5119544;28;20050;-58
2023/09/12 05:26:12;;;;;;;42.25;27.60;;;18.10;99.90;;;;;;5119460;28;20039;-58
2023/09/12 05:28:38;;;;;;;59.53;27.65;;;18.00;99.90;;;;;;5118548;28;20155;-58
2023/09/12 05:31:04;;;;;;;45.20;25.52;;;18.00;99.90;;;;;;5119297;28;20058;-58
2023/09/12 05:33:29;;;;;;;40.60;26.15;;;17.80;99.90;;;;;;5118627;28;20031;-59
2023/09/12 05:35:55;;;;;;;43.25;26.20;;;17.80;99.90;;;;;;5119737;28;20051;-59
2023/09/12 05:38:21;;;;;;;39.38;26.13;;;17.90;99.90;;;;;;5118816;28;20039;-58
2023/09/12 05:40:49;;;;;;;45.08;26.55;;;17.80;99.90;;;;;;5119513;28;20024;-58
2023/09/12 05:43:16;;;;;;;33.42;25.48;;;17.80;99.90;;;;;;5119247;28;20043;-58
2023/09/12 05:45:42;;;;;;;40.30;26.13;;;17.90;99.90;;;;;;5118358;28;20067;-58
2023/09/12 05:48:09;;;;;;;37.15;28.30;;;17.90;99.90;;;;;;5123224;28;20044;-58
2023/09/12 05:50:38;;;;;;;42.45;28.20;;;17.90;99.90;;;;;;5121504;27;20056;-58
2023/09/12 05:53:04;;;;;;;47.55;29.10;;;17.80;99.90;;;;;;5122390;28;20142;-58
2023/09/12 05:55:30;;;;;;;49.28;28.67;;;17.80;99.90;;;;;;5109022;28;20051;-58
2023/09/12 05:57:55;;;;;;;67.30;29.63;;;18.00;99.90;;;;;;5103007;28;20050;-58
2023/09/12 06:00:21;;;;;;;60.28;29.25;;;18.00;99.90;;;;;;5102379;28;20069;-58
2023/09/12 06:02:48;;;;;;;50.38;31.17;;;18.00;99.90;;;;;;5101953;28;20040;-58
2023/09/12 06:05:14;;;;;;;49.05;28.95;;;18.10;99.90;;;;;;5102481;28;20044;-58
2023/09/12 06:07:40;;;;;;;53.38;31.10;;;18.00;99.90;;;;;;5081105;28;20051;-58
2023/09/12 06:10:07;;;;;;;69.20;31.70;;;17.90;99.90;;;;;;5102452;28;20358;-58
2023/09/12 06:12:35;;;;;;;52.22;30.80;;;17.90;99.90;;;;;;5098548;28;20130;-58
2023/09/12 06:15:02;;;;;;;59.08;31.58;;;18.00;99.90;;;;;;5097173;28;20044;-58
2023/09/12 06:17:28;;;;;;;51.00;32.75;;;18.00;99.90;;;;;;5098236;28;20044;-59
2023/09/12 06:19:55;;;;;;;57.35;33.63;;;18.10;99.90;;;;;;5096980;28;20040;-58
2023/09/12 06:22:22;;;;;;;63.95;35.25;;;18.10;99.90;;;;;;5098426;28;20048;-58
2023/09/12 06:24:49;;;;;;;61.45;37.70;;;18.10;99.90;;;;;;5097099;28;20058;-58
2023/09/12 06:27:21;;;;;;;70.63;36.38;;;18.20;99.90;;;;;;5098789;28;20046;-58
2023/09/12 06:29:50;;;;;;;65.45;33.88;;;18.30;99.90;;;;;;5097090;28;20047;-58
2023/09/12 06:32:18;;;;;;;61.90;33.58;;;18.20;99.90;;;;;;5098046;28;20447;-58
2023/09/12 06:34:43;;;;;;;58.67;34.33;;;18.20;99.90;;;;;;5097856;28;20151;-57
2023/09/12 06:37:11;;;;;;;57.30;32.95;;;18.30;99.90;;;;;;5096903;28;20086;-58
2023/09/12 06:39:37;;;;;;;57.92;33.08;;;18.20;99.90;;;;;;5097941;28;20074;-58
2023/09/12 06:42:03;;;;;;;55.80;32.90;;;18.30;99.90;;;;;;5104529;28;20044;-58
2023/09/12 06:44:29;;;;;;;53.50;33.25;;;18.30;99.90;;;;;;5118055;28;20039;-58
2023/09/12 06:46:54;;;;;;;58.00;32.40;;;18.40;99.90;;;;;;5117177;28;20059;-57
2023/09/12 06:49:20;;;;;;;55.92;33.08;;;18.40;99.90;;;;;;5118184;28;20060;-58
2023/09/12 06:51:46;;;;;;;64.18;34.92;;;18.30;99.90;;;;;;5117700;28;20318;-58
2023/09/12 06:54:12;;;;;;;58.15;33.58;;;18.40;99.90;;;;;;5109409;28;20089;-58
2023/09/12 06:56:38;;;;;;;56.10;33.30;;;18.30;99.90;;;;;;5116711;28;20052;-57
2023/09/12 06:59:04;;;;;;;52.75;32.95;;;18.30;99.90;;;;;;5106481;28;20433;-58
2023/09/12 07:01:30;;;;;;;53.80;32.22;;;18.50;99.90;;;;;;5109514;28;20131;-58
2023/09/12 07:03:56;;;;;;;50.55;32.45;;;18.50;99.90;;;;;;5116781;28;20036;-58
2023/09/12 07:06:22;;;;;;;57.30;35.10;;;18.60;99.90;;;;;;5117857;28;20131;-58
2023/09/12 07:08:48;;;;;;;56.95;34.13;;;18.60;99.90;;;;;;5102684;28;20055;-58
2023/09/12 07:11:14;;;;;;;59.00;33.85;;;18.60;99.90;;;;;;5096366;28;20044;-58
2023/09/12 07:13:40;;;;;;;62.20;34.53;;;18.50;99.90;;;;;;5097213;28;20040;-57
2023/09/12 07:16:06;;;;;;;55.22;32.25;;;18.50;99.90;;;;;;5095810;28;20043;-58
2023/09/12 07:18:32;;;;;;;52.80;32.97;;;18.50;99.90;;;;;;5098519;28;20036;-58
2023/09/12 07:21:02;;;;;;;52.65;32.55;;;18.60;99.90;;;;;;5104490;28;20044;-57
2023/09/12 07:23:28;;;;;;;52.03;33.08;;;18.60;99.90;;;;;;5103806;28;20056;-58
2023/09/12 07:25:57;;;;;;;56.88;34.00;;;18.60;99.90;;;;;;5104942;28;20046;-58
2023/09/12 07:28:23;;;;;;;60.25;33.58;;;18.60;99.90;;;;;;5106051;28;20040;-58
2023/09/12 07:30:49;;;;;;;55.17;33.90;;;18.70;99.90;;;;;;5105380;28;20039;-57
2023/09/12 07:33:15;;;;;;;58.55;34.58;;;18.80;99.90;;;;;;5104582;28;20067;-57
2023/09/12 07:35:41;;;;;;;58.33;34.50;;;18.60;99.90;;;;;;5107474;28;20059;-58
2023/09/12 07:38:06;;;;;;;59.70;33.30;;;18.70;99.90;;;;;;5101790;28;20040;-58
2023/09/12 07:40:32;;;;;;;53.90;32.97;;;18.70;99.90;;;;;;5106837;28;20036;-58
2023/09/12 07:42:58;;;;;;;56.53;33.38;;;18.70;99.90;;;;;;5106311;28;20174;-58
2023/09/12 07:45:24;;;;;;;60.65;34.63;;;18.70;99.90;;;;;;5104087;28;20408;-58
2023/09/12 07:47:50;;;;;;;57.50;31.80;;;18.60;99.90;;;;;;5106659;28;20452;-58
2023/09/12 07:50:15;;;;;;;62.53;34.28;;;18.80;99.90;;;;;;5105241;28;20609;-58
2023/09/12 07:52:41;;;;;;;58.17;33.78;;;18.80;99.90;;;;;;5105310;28;20048;-57
2023/09/12 07:55:07;;;;;;;61.20;34.53;;;18.80;99.90;;;;;;5104289;28;20137;-58
2023/09/12 07:57:34;;;;;;;66.70;35.70;;;18.80;99.90;;;;;;5105695;28;20047;-57
2023/09/12 08:00:00;;;;;;;64.50;35.03;;;18.80;99.90;;;;;;5106247;28;20051;-58
2023/09/12 08:02:26;;;;;;;64.70;36.90;;;19.00;99.90;;;;;;5104775;28;20055;-58
2023/09/12 08:04:53;;;;;;;66.40;35.60;;;19.00;99.90;;;;;;5106270;28;20035;-58
2023/09/12 08:07:19;;;;;;;66.03;35.78;;;19.10;99.90;;;;;;5105415;28;20039;-57
2023/09/12 08:09:51;;;;;;;63.42;34.00;;;19.00;99.90;;;;;;5102272;28;20071;-58
2023/09/12 08:12:17;;;;;;;68.68;36.10;;;19.20;99.90;;;;;;5104312;28;20051;-58
2023/09/12 08:14:44;;;;;;;67.78;34.70;;;19.20;99.90;;;;;;5107551;28;20550;-58
2023/09/12 08:17:11;;;;;;;63.88;35.30;;;19.10;99.90;;;;;;5115545;28;20054;-58
2023/09/12 08:19:36;;;;;;;64.38;35.53;;;19.20;99.90;;;;;;5115389;28;20051;-57
2023/09/12 08:22:02;;;;;;;63.75;34.00;;;19.20;99.90;;;;;;5115768;28;20058;-59
2023/09/12 08:24:28;;;;;;;66.10;34.45;;;19.20;99.90;;;;;;5115149;28;20047;-58
2023/09/12 08:26:54;;;;;;;65.38;34.35;;;19.30;99.90;;;;;;5116043;28;20258;-57
2023/09/12 08:29:20;;;;;;;60.53;34.33;;;19.40;99.90;;;;;;5115128;28;20043;-58
2023/09/12 08:31:46;;;;;;;68.03;36.40;;;19.40;99.90;;;;;;5114960;28;20051;-57
2023/09/12 08:34:13;;;;;;;62.55;34.40;;;19.40;99.90;;;;;;5115301;28;20043;-58
2023/09/12 08:36:39;;;;;;;59.50;32.58;;;19.50;99.90;;;;;;5116159;28;20048;-58
2023/09/12 08:39:08;;;;;;;64.53;34.88;;;19.60;99.90;;;;;;5118860;28;20118;-58
2023/09/12 08:41:34;;;;;;;66.85;35.40;;;19.60;99.90;;;;;;5117143;28;20039;-58
2023/09/12 08:44:01;;;;;;;64.80;33.88;;;19.50;99.90;;;;;;5119513;28;20336;-58
2023/09/12 08:46:27;;;;;;;60.67;35.67;;;19.60;99.90;;;;;;5118546;28;20035;-58
2023/09/12 08:48:55;;;;;;;64.15;34.97;;;19.60;99.90;;;;;;5119619;28;20403;-58
2023/09/12 08:51:23;;;;;;;65.47;34.97;;;19.70;99.90;;;;;;5118505;28;20051;-58
2023/09/12 08:53:50;;;;;;;60.67;33.50;;;19.80;99.90;;;;;;5118665;28;20578;-57
2023/09/12 08:56:16;;;;;;;69.45;35.80;;;19.70;99.90;;;;;;5099722;28;20057;-57
2023/09/12 08:58:43;;;;;;;67.60;36.33;;;19.80;99.90;;;;;;5097800;28;20520;-58
2023/09/12 09:01:12;;;;;;;66.47;38.15;;;20.00;99.90;;;;;;5099095;28;20052;-57
2023/09/12 09:03:41;;;;;;;66.38;36.90;;;19.90;99.90;;;;;;5097781;28;20040;-57
2023/09/12 09:06:08;;;;;;;64.65;34.53;;;20.00;99.90;;;;;;5099218;28;20048;-57
2023/09/12 09:08:35;;;;;;;61.13;37.13;;;20.10;99.90;;;;;;5098140;28;20052;-57
2023/09/12 09:11:06;;;;;;;66.82;36.72;;;20.10;99.90;;;;;;5098645;28;20040;-57
2023/09/12 09:13:32;;;;;;;61.90;36.78;;;20.40;99.90;;;;;;5098778;28;20119;-60
2023/09/12 09:16:15;;;;;;;60.58;36.47;;;20.40;99.90;;;;;;5097876;28;20032;-57
2023/09/12 09:19:03;;;;;;;61.38;34.30;;;20.40;99.90;;;;;;5098608;28;20518;-58
2023/09/12 09:21:31;;;;;;;59.47;34.80;;;20.40;99.90;;;;;;5101395;28;20104;-57
2023/09/12 09:24:03;;;;;;;57.00;33.40;;;20.40;99.90;;;;;;5102422;28;20077;-57
2023/09/12 09:26:49;;;;;;;59.65;34.65;;;20.40;99.90;;;;;;5102891;28;20044;-57
2023/09/12 09:29:20;;;;;;;53.60;32.72;;;20.40;99.90;;;;;;5100396;28;20487;-57
2023/09/12 09:31:48;;;;;;;54.97;33.65;;;20.40;99.90;;;;;;5103242;28;20120;-57
2023/09/12 09:34:16;;;;;;;55.90;34.50;;;20.60;99.90;;;;;;5102450;28;20040;-57
2023/09/12 09:36:43;;;;;;;57.53;35.08;;;20.60;99.90;;;;;;5102466;28;20453;-58
2023/09/12 09:39:09;;;;;;;58.80;34.97;;;20.80;99.90;;;;;;5102646;28;20117;-57
2023/09/12 09:41:36;;;;;;;58.08;35.00;;;20.80;99.90;;;;;;5101948;28;20048;-58
2023/09/12 09:44:04;;;;;;;58.65;34.28;;;20.80;99.90;;;;;;5102711;28;20040;-58
2023/09/12 09:46:29;;;;;;;56.25;34.33;;;20.70;99.90;;;;;;5101468;28;20040;-58
2023/09/12 09:48:55;;;;;;;53.65;33.35;;;20.80;99.90;;;;;;5102855;28;20097;-57
2023/09/12 09:51:21;;;;;;;55.75;33.70;;;20.90;99.90;;;;;;5101478;28;20054;-57
2023/09/12 09:53:51;;;;;;;50.03;31.50;;;20.90;99.90;;;;;;5101877;28;20055;-57
2023/09/12 09:56:17;;;;;;;54.92;34.08;;;21.20;99.90;;;;;;5122540;28;20035;-56
2023/09/12 09:58:51;;;;;;;53.63;33.60;;;21.30;99.90;;;;;;5121804;28;20042;-57
2023/09/12 10:01:22;;;;;;;48.42;31.45;;;21.30;99.90;;;;;;5122844;28;20043;-58
2023/09/12 10:03:49;;;;;;;49.17;32.42;;;21.60;99.90;;;;;;5121303;28;20043;-57
2023/09/12 10:06:19;;;;;;;47.90;31.83;;;21.70;99.90;;;;;;5123163;28;20432;-57
2023/09/12 10:08:49;;;;;;;45.97;30.88;;;21.60;99.90;;;;;;5122102;28;20043;-57
2023/09/12 10:11:17;;;;;;;49.38;31.27;;;21.40;99.90;;;;;;5121656;28;20367;-55
2023/09/12 10:13:53;;;;;;;44.17;30.73;;;21.50;99.90;;;;;;5116375;28;20036;-57
2023/09/12 10:16:24;;;;;;;44.70;30.83;;;21.60;99.90;;;;;;5121512;28;20047;-57
2023/09/12 10:18:56;;;;;;;;;;;21.50;99.90;;;;;;5123057;28;20036;-56
2023/09/12 10:21:27;;;;;;;;;;;21.70;99.90;;;;;;5122179;28;19919;-57
2023/09/12 10:23:55;;;;;;;40.10;27.63;;;21.80;99.90;;;;;;5122005;28;19920;-57
2023/09/12 10:26:22;;;;;;;45.45;28.30;;;22.00;99.90;;;;;;5122316;28;20035;-57
2023/09/12 10:28:50;;;;;;;38.33;27.35;;;21.90;99.90;;;;;;5121286;28;20099;-58
2023/09/12 10:31:16;;;;;;;37.03;27.52;;;21.80;99.90;;;;;;5110478;28;20617;-57
2023/09/12 10:33:44;;;;;;;39.55;28.05;;;21.90;99.90;;;;;;5099856;28;20033;-57
2023/09/12 10:36:11;;;;;;;39.05;26.38;;;22.20;99.90;;;;;;5100781;28;20048;-57
2023/09/12 10:38:44;;;;;;;40.80;28.27;;;22.30;99.90;;;;;;5100899;28;20056;-57
2023/09/12 10:41:16;;;;;;;39.28;26.17;;;22.20;99.90;;;;;;5100957;28;20058;-57
2023/09/12 10:43:46;;;;;;;39.35;26.17;;;22.20;99.90;;;;;;5101261;28;20036;-56
2023/09/12 10:46:12;;;;;;;35.47;25.58;;;22.20;99.90;;;;;;5100462;28;20066;-57
2023/09/12 10:48:40;;;;;;;37.00;25.40;;;22.20;99.90;;;;;;5101585;28;20048;-58
2023/09/12 10:51:07;;;;;;;36.42;24.30;;;22.30;99.90;;;;;;5100333;28;20064;-57
2023/09/12 10:53:33;;;;;;;37.17;24.40;;;22.30;99.90;;;;;;5100702;28;20500;-57
2023/09/12 10:56:32;;;;;;;34.22;24.70;;;22.40;99.90;;;;;;5117118;28;20043;-57
2023/09/12 10:59:06;;;;;;;40.00;27.15;;;22.70;99.90;;;;;;5120431;28;20565;-57
2023/09/12 11:01:53;;;;;;;35.17;24.98;;;22.70;99.00;;;;;;5117171;28;20073;-58
2023/09/12 11:04:18;;;;;;;34.80;24.98;;;22.80;99.90;;;;;;5107314;28;20097;-57
2023/09/12 11:06:45;;;;;;;32.60;23.70;;;22.70;95.40;;;;;;5108760;28;20040;-58
2023/09/12 11:09:13;;;;;;;32.22;23.77;;;22.80;99.20;;;;;;5111496;28;20036;-57
2023/09/12 11:11:46;;;;;;;30.98;21.42;;;22.70;83.80;;;;;;5109400;28;20149;-57
2023/09/12 11:14:13;;;;;;;30.00;20.70;;;22.70;85.20;;;;;;5118516;28;20079;-57
2023/09/12 11:16:39;;;;;;;29.65;21.17;;;22.70;82.10;;;;;;5119871;28;20043;-57
2023/09/12 11:19:15;;;;;;;27.70;19.15;;;22.50;78.30;;;;;;5121136;28;20047;-57
2023/09/12 11:21:46;;;;;;;28.70;18.67;;;22.70;83.40;;;;;;5113645;28;20065;-57
2023/09/12 11:24:12;;;;;;;24.90;16.70;;;22.80;84.40;;;;;;5108440;28;20035;-57
2023/09/12 11:27:04;;;;;;;24.55;16.98;;;22.90;86.20;;;;;;5116417;28;20049;-57
2023/09/12 11:29:35;;;;;;;;;;;23.00;65.30;;;;;;5120556;28;20050;-57
2023/09/12 11:32:02;;;;;;;26.65;17.92;;;22.90;51.70;;;;;;5121267;28;20201;-57
2023/09/12 11:34:35;;;;;;;25.95;17.40;;;23.10;72.40;;;;;;5120485;28;20043;-57
2023/09/12 11:37:02;;;;;;;27.10;18.15;;;23.30;68.80;;;;;;5120130;28;20050;-57
2023/09/12 11:39:30;;;;;;;24.73;17.08;;;23.50;61.70;;;;;;5121044;28;20054;-57
2023/09/12 11:41:57;;;;;;;20.38;15.05;;;23.50;60.80;;;;;;5119828;28;20040;-57
2023/09/12 11:44:23;;;;;;;19.33;12.75;;;23.40;53.90;;;;;;5121015;28;20034;-58
2023/09/12 11:46:50;;;;;;;18.73;13.30;;;23.50;53.00;;;;;;5119975;28;20094;-57
2023/09/12 11:49:17;;;;;;;16.90;10.43;;;23.20;26.00;;;;;;5120320;28;20071;-57
2023/09/12 11:51:54;;;;;;;17.70;10.90;;;23.60;37.00;;;;;;5120417;28;20060;-57
2023/09/12 11:54:24;;;;;;;12.27;9.77;;;23.50;17.80;;;;;;5116045;28;20040;-57
2023/09/12 11:56:56;;;;;;;18.48;12.07;;;23.50;30.30;;;;;;5101359;28;20070;-58
2023/09/12 11:59:26;;;;;;;;;;;23.30;23.50;;;;;;5103543;28;20035;-58
2023/09/12 12:01:52;;;;;;;15.43;9.43;;;22.80;41.30;;;;;;5100189;28;19927;-57
2023/09/12 12:04:21;;;;;;;13.38;7.45;;;22.20;50.00;;;;;;5099831;28;20055;-57
2023/09/12 12:06:48;;;;;;;13.23;8.35;;;22.00;40.50;;;;;;5099792;28;20048;-58
2023/09/12 12:09:16;;;;;;;15.30;7.90;;;21.70;58.50;;;;;;5099974;28;20036;-59
2023/09/12 12:11:42;;;;;;;12.00;8.00;;;21.60;73.70;;;;;;5091235;28;20040;-57
2023/09/12 12:14:14;;;;;;;12.45;7.22;;;21.40;62.80;;;;;;5092658;28;20048;-57
2023/09/12 12:16:41;;;;;;;10.30;7.28;;;21.50;73.60;;;;;;5088040;28;20047;-58
2023/09/12 12:19:07;;;;;;;11.85;8.23;;;21.40;72.30;;;;;;5086573;28;20059;-57
2023/09/12 12:21:33;;;;;;;16.52;8.80;;;21.70;73.00;;;;;;5098070;28;20075;-57
2023/09/12 12:24:02;;;;;;;15.73;11.48;;;21.80;75.20;;;;;;5098557;28;20212;-58
2023/09/12 12:26:29;;;;;;;17.52;11.73;;;22.20;78.10;;;;;;5099679;28;20070;-58
2023/09/12 12:28:55;;;;;;;20.60;13.45;;;22.10;73.40;;;;;;5098825;28;20103;-58